»·PEaware :: SKY762 KABQ-KSKX

SKY762 :: KABQ-KSKX

FLIGHT INFORMATION

Flight Status: Arrived
Operator:
Sky High Charters
More flights by this operator :: More flights under this callsign
Pilot: Slade E. (12022)
Aircraft: BEECH AIRCRAFT A90-E90 KING AIR
(BE9L)
More flights by this aircraft type
Origin: KABQ Albuquerque Intl Sunport
United States
Destination: KSKX Taos Regl
United States
More flights between these airports :: More routes between these airports
Route: ABQ3 ABQ V263 SAF V83 DIXAN
File this flight plan on PilotEdge
Remarks: SCENARIO 2
Altitude:
(Current/Filed)
11,000ft
Speed:
(Current/Filed)
200kts
Departed: 25-Oct-20 12:04 PM
Arrived: 25-Oct-20 12:44 PM
Distance/Time
Traveled:
97nm/0:40
Distance/Time
To Go:
Arrived

Flight Plot

Page will automatically refresh every two minutes.

Flight plan parsing failed; only flown route is shown


Map Options




Map Legend


Flown Route
Filed Route
Departure Airport
Arrival Airport
Navaid (VOR, NDB)
Fix

Horizontal Profiles

Position Reports

Time Latitude Longitude Heading Altitude Ground
Speed
25-Oct-20 11:45 35.036158 -106.618295 137 5309ft 0kts
25-Oct-20 11:46 35.036158 -106.618295 137 5309ft 0kts
25-Oct-20 11:47 35.036158 -106.618295 137 5309ft 0kts
25-Oct-20 11:48 35.036158 -106.618295 137 5309ft 0kts
25-Oct-20 11:49 35.036158 -106.618295 137 5309ft 0kts
25-Oct-20 11:50 35.036158 -106.618295 137 5309ft 0kts
25-Oct-20 11:51 35.036158 -106.618295 137 5309ft 0kts
25-Oct-20 11:52 35.036158 -106.618295 137 5309ft 0kts
25-Oct-20 11:53 35.036158 -106.618295 137 5309ft 0kts
25-Oct-20 11:54 35.036157 -106.618295 137 5309ft 0kts
25-Oct-20 11:55 35.036157 -106.618295 137 5309ft 0kts
25-Oct-20 11:56 35.036157 -106.618295 137 5309ft 0kts
25-Oct-20 11:57 35.036157 -106.618294 137 5309ft 0kts
25-Oct-20 11:58 35.036324 -106.616905 63 5309ft 10kts
25-Oct-20 11:59 35.036488 -106.615557 44 5310ft 10kts
25-Oct-20 12:00 35.040291 -106.613855 0 5312ft 15kts
25-Oct-20 12:01 35.042442 -106.611404 88 5314ft 11kts
25-Oct-20 12:02 35.042411 -106.607566 91 5315ft 11kts
25-Oct-20 12:03 35.033623 -106.616859 223 5317ft 122kts
25-Oct-20 12:04 35.016686 -106.654110 299 6264ft 140kts
25-Oct-20 12:05 35.039610 -106.690830 311 7399ft 138kts
25-Oct-20 12:06 35.066931 -106.724208 316 8337ft 140kts
25-Oct-20 12:07 35.094283 -106.758241 315 9484ft 141kts
25-Oct-20 12:08 35.127618 -106.775419 19 10501ft 139kts
25-Oct-20 12:09 35.166735 -106.763825 17 11015ft 171kts
25-Oct-20 12:10 35.216987 -106.743208 18 11004ft 203kts
25-Oct-20 12:11 35.271625 -106.720113 18 11001ft 212kts
25-Oct-20 12:12 35.327753 -106.696335 18 11000ft 214kts
25-Oct-20 12:13 35.384400 -106.672301 18 11000ft 215kts
25-Oct-20 12:14 35.440877 -106.648361 18 11000ft 216kts
25-Oct-20 12:15 35.497923 -106.624753 18 11000ft 216kts
25-Oct-20 12:16 35.524190 -106.565773 84 11001ft 215kts
25-Oct-20 12:17 35.527460 -106.492239 87 11000ft 215kts
25-Oct-20 12:18 35.529858 -106.418634 87 11000ft 216kts
25-Oct-20 12:19 35.532162 -106.345028 88 11000ft 216kts
25-Oct-20 12:20 35.534421 -106.271188 88 11000ft 216kts
25-Oct-20 12:21 35.536632 -106.197475 88 10999ft 216kts
25-Oct-20 12:22 35.538800 -106.123578 88 11000ft 216kts
25-Oct-20 12:23 35.564062 -106.066991 15 11006ft 214kts
25-Oct-20 12:24 35.622789 -106.053640 8 11000ft 215kts
25-Oct-20 12:25 35.682354 -106.044183 7 11000ft 216kts
25-Oct-20 12:26 35.741990 -106.035308 6 11000ft 216kts
25-Oct-20 12:27 35.801805 -106.026485 6 11000ft 216kts
25-Oct-20 12:28 35.861600 -106.017660 6 11000ft 216kts
25-Oct-20 12:29 35.921413 -106.008815 6 11000ft 216kts
25-Oct-20 12:30 35.981136 -105.999963 6 11000ft 216kts
25-Oct-20 12:31 36.040819 -105.991108 6 11000ft 216kts
25-Oct-20 12:32 36.100677 -105.982265 6 11000ft 216kts
25-Oct-20 12:33 36.160401 -105.973401 6 11000ft 216kts
25-Oct-20 12:34 36.220269 -105.964478 6 10999ft 217kts
25-Oct-20 12:35 36.278399 -105.953091 28 10986ft 198kts
25-Oct-20 12:36 36.320090 -105.910771 42 10243ft 191kts
25-Oct-20 12:37 36.354528 -105.862612 55 9502ft 184kts
25-Oct-20 12:38 36.382424 -105.811682 55 9006ft 159kts
25-Oct-20 12:39 36.401601 -105.771065 59 8489ft 122kts
25-Oct-20 12:40 36.421569 -105.738897 51 8026ft 107kts
25-Oct-20 12:42 36.440513 -105.705805 54 7564ft 126kts
25-Oct-20 12:43 36.456697 -105.675244 55 7092ft 81kts
25-Oct-20 12:44 36.460839 -105.668899 54 7091ft 0kts
25-Oct-20 12:45 36.461450 -105.668434 286 7091ft 0kts
25-Oct-20 12:46 36.461450 -105.668434 286 7091ft 0kts
25-Oct-20 12:47 36.461450 -105.668434 286 7091ft 0kts
25-Oct-20 12:48 36.461450 -105.668434 286 7091ft 0kts
25-Oct-20 12:49 36.461450 -105.668434 286 7091ft 0kts
25-Oct-20 12:50 36.461450 -105.668434 286 7091ft 0kts
25-Oct-20 12:51 36.461450 -105.668434 286 7091ft 0kts
25-Oct-20 12:52 36.461450 -105.668434 286 7091ft 0kts
25-Oct-20 12:53 36.461450 -105.668434 286 7091ft 0kts

Navigation Log

Ident Type
Flight plan parsing failed, navigation log unavailable